createdAt,value
2023-03-28T00:00:30.228Z,97185.25
2023-03-28T00:03:09.809Z,97207.25
2023-03-28T00:05:42.329Z,97170.59
2023-03-28T00:08:14.236Z,97204.50
2023-03-28T00:10:51.458Z,97211.38
2023-03-28T00:13:30.212Z,97220.78
2023-03-28T00:16:06.758Z,97203.41
2023-03-28T00:18:37.995Z,97215.78
2023-03-28T00:21:24.332Z,97219.56
2023-03-28T00:24:02.147Z,97228.34
2023-03-28T00:26:36.954Z,97254.25
2023-03-28T00:29:21.582Z,97224.31
2023-03-28T00:31:54.490Z,97222.97
2023-03-28T00:34:23.940Z,97223.25
2023-03-28T00:36:57.908Z,97218.34
2023-03-28T00:39:37.892Z,97225.88
2023-03-28T00:42:08.623Z,97228.03
2023-03-28T00:44:54.201Z,97149.09
2023-03-28T00:47:38.856Z,97232.84
2023-03-28T00:50:13.798Z,97204.13
2023-03-28T00:52:47.716Z,97239.47
2023-03-28T00:55:21.169Z,97218.16
2023-03-28T00:57:53.346Z,97229.56
2023-03-28T01:00:24.809Z,97207.91
2023-03-28T01:02:58.963Z,97232.25
2023-03-28T01:05:31.152Z,97236.00
2023-03-28T01:08:07.966Z,97235.59
2023-03-28T01:10:42.390Z,97160.41
2023-03-28T01:13:13.750Z,97252.00
2023-03-28T01:15:44.470Z,97245.28
2023-03-28T01:18:15.865Z,97056.78
2023-03-28T01:21:00.193Z,97239.63
2023-03-28T01:23:54.857Z,97251.69
2023-03-28T01:26:48.896Z,97247.75
2023-03-28T01:30:16.947Z,97250.13
2023-03-28T01:33:31.028Z,97256.38
2023-03-28T01:36:33.845Z,97253.66
2023-03-28T01:39:09.479Z,97263.41
2023-03-28T01:41:45.680Z,97227.63
2023-03-28T01:44:21.219Z,97261.56
2023-03-28T01:46:58.261Z,97225.00
2023-03-28T01:49:34.430Z,97262.38
2023-03-28T01:52:12.118Z,97261.69
2023-03-28T01:54:49.546Z,97259.09
2023-03-28T01:57:31.247Z,97259.00
2023-03-28T02:00:12.281Z,97267.38
2023-03-28T02:02:43.597Z,97220.28
2023-03-28T02:05:17.922Z,97262.09
2023-03-28T02:07:48.321Z,97265.78
2023-03-28T02:10:22.401Z,97264.06
2023-03-28T02:12:54.478Z,97219.28
2023-03-28T02:15:34.727Z,97259.34
2023-03-28T02:18:06.995Z,97240.66
2023-03-28T02:20:45.000Z,97261.69
2023-03-28T02:23:16.839Z,96975.19
2023-03-28T02:25:47.340Z,97261.41
2023-03-28T02:28:19.763Z,97266.03
2023-03-28T02:30:48.915Z,97258.00
2023-03-28T02:33:40.663Z,97246.28
2023-03-28T02:36:31.496Z,97259.88
2023-03-28T02:39:13.674Z,97267.59
2023-03-28T02:41:57.072Z,97251.16
2023-03-28T02:44:41.130Z,97262.88
2023-03-28T02:47:18.683Z,97256.63
2023-03-28T02:49:53.098Z,97252.75
2023-03-28T02:52:33.036Z,97257.19
2023-03-28T02:55:06.095Z,97256.47
2023-03-28T02:57:38.493Z,97256.91
2023-03-28T03:00:16.518Z,97250.97
2023-03-28T03:02:51.862Z,97258.53
2023-03-28T03:05:27.407Z,97253.78
2023-03-28T03:07:59.764Z,97259.09
2023-03-28T03:10:28.197Z,97256.75
2023-03-28T03:13:05.178Z,97263.50
2023-03-28T03:15:35.830Z,97266.72
2023-03-28T03:18:06.027Z,97252.81
2023-03-28T03:20:36.993Z,97272.75
2023-03-28T03:23:08.525Z,97232.78
2023-03-28T03:25:37.977Z,97260.22
2023-03-28T03:28:25.624Z,97214.69
2023-03-28T03:30:59.361Z,97298.50
2023-03-28T03:33:28.449Z,97183.13
2023-03-28T03:35:59.931Z,97259.47
2023-03-28T03:38:30.626Z,97252.59
2023-03-28T03:41:07.706Z,97244.38
2023-03-28T03:43:39.292Z,97253.91
2023-03-28T03:46:10.025Z,97251.16
2023-03-28T03:48:39.097Z,97243.06
2023-03-28T03:51:22.997Z,97237.56
2023-03-28T03:53:53.738Z,97182.00
2023-03-28T03:56:27.541Z,97059.78
2023-03-28T03:59:01.071Z,97216.56
2023-03-28T04:01:35.478Z,97242.38
2023-03-28T04:04:06.414Z,97201.75
2023-03-28T04:06:40.468Z,97251.00
2023-03-28T04:09:09.348Z,97261.47
2023-03-28T04:11:42.860Z,97186.56
2023-03-28T04:14:16.978Z,97219.56
2023-03-28T04:16:47.575Z,97267.94
2023-03-28T04:19:18.996Z,97238.03
2023-03-28T04:21:53.071Z,97263.06
2023-03-28T04:24:27.658Z,97237.66
2023-03-28T04:26:57.011Z,97272.91
2023-03-28T04:29:42.056Z,97282.63
2023-03-28T04:32:13.672Z,97274.50
2023-03-28T04:34:42.712Z,97263.03
2023-03-28T04:37:13.407Z,97278.72
2023-03-28T04:39:47.998Z,97277.50
2023-03-28T04:42:21.403Z,97263.25
2023-03-28T04:44:51.318Z,97277.31
2023-03-28T04:47:25.992Z,97294.06
2023-03-28T04:49:56.366Z,97273.91
2023-03-28T04:52:25.570Z,97286.25
2023-03-28T04:54:58.746Z,97279.75
2023-03-28T04:57:32.443Z,97291.09
2023-03-28T05:00:08.194Z,97296.53
2023-03-28T05:02:40.225Z,97302.97
2023-03-28T05:05:11.829Z,97304.81
2023-03-28T05:07:57.087Z,97302.75
2023-03-28T05:10:30.130Z,97303.59
2023-03-28T05:13:00.616Z,97263.50
2023-03-28T05:15:36.076Z,97070.13
2023-03-28T05:18:04.812Z,97315.88
2023-03-28T05:20:33.993Z,97310.06
2023-03-28T05:23:04.799Z,97313.06
2023-03-28T05:25:35.051Z,97310.06
2023-03-28T05:28:06.742Z,97288.28
2023-03-28T05:30:41.163Z,97028.72
2023-03-28T05:33:13.176Z,97337.84
2023-03-28T05:35:41.874Z,97331.41
2023-03-28T05:38:14.644Z,97332.22
2023-03-28T05:40:48.101Z,97303.59
2023-03-28T05:43:17.920Z,97331.38
2023-03-28T05:45:48.569Z,97318.66
2023-03-28T05:48:20.889Z,97341.28
2023-03-28T05:50:51.043Z,97346.13
2023-03-28T05:53:23.877Z,97346.91
2023-03-28T05:55:52.576Z,97345.75
2023-03-28T05:58:25.055Z,97342.03
2023-03-28T06:00:58.173Z,97359.69
2023-03-28T06:03:35.261Z,97344.22
2023-03-28T06:06:08.783Z,97350.38
2023-03-28T06:08:42.363Z,97321.44
2023-03-28T06:11:10.729Z,97354.81
2023-03-28T06:13:43.321Z,97349.47
2023-03-28T06:16:15.286Z,97354.41
2023-03-28T06:18:45.542Z,97102.69
2023-03-28T06:21:14.076Z,97357.59
2023-03-28T06:23:48.662Z,97362.59
2023-03-28T06:26:22.174Z,97306.19
2023-03-28T06:28:50.767Z,97355.44
2023-03-28T06:31:27.937Z,97358.44
2023-03-28T06:34:00.561Z,97365.97
2023-03-28T06:36:31.796Z,97369.59
2023-03-28T06:39:02.884Z,97373.28
2023-03-28T06:41:31.622Z,97377.59
2023-03-28T06:44:03.569Z,97372.72
2023-03-28T06:46:36.209Z,97372.22
2023-03-28T06:49:06.963Z,97243.13
2023-03-28T06:51:37.996Z,97373.63
2023-03-28T06:54:05.887Z,97245.50
2023-03-28T06:56:34.583Z,97370.59
2023-03-28T06:59:06.000Z,97372.91
2023-03-28T07:01:39.966Z,97368.81
2023-03-28T07:04:11.116Z,97280.53
2023-03-28T07:06:41.324Z,97321.88
2023-03-28T07:09:13.320Z,97361.34
2023-03-28T07:11:52.261Z,97358.59
2023-03-28T07:14:26.420Z,97319.22
2023-03-28T07:16:56.423Z,97370.25
2023-03-28T07:19:33.066Z,97369.75
2023-03-28T07:22:02.362Z,97195.28
2023-03-28T07:24:31.745Z,97313.03
2023-03-28T07:27:14.776Z,97364.41
2023-03-28T07:29:46.638Z,97366.19
2023-03-28T07:32:18.392Z,97173.84
2023-03-28T07:34:52.587Z,97368.50
2023-03-28T07:37:26.344Z,97343.31
2023-03-28T07:39:56.653Z,97362.72
2023-03-28T07:42:30.018Z,97387.88
2023-03-28T07:45:02.289Z,97386.66
2023-03-28T07:47:34.870Z,97378.75
2023-03-28T07:50:06.139Z,97387.56
2023-03-28T07:52:44.902Z,97388.97
2023-03-28T07:55:18.210Z,97395.25
2023-03-28T07:57:55.609Z,97396.00
2023-03-28T08:00:30.279Z,97366.59
2023-03-28T08:03:04.282Z,97405.75
2023-03-28T08:05:35.245Z,97396.81
2023-03-28T08:08:06.345Z,97427.22
2023-03-28T08:10:38.811Z,97406.63
2023-03-28T08:13:08.725Z,97396.31
2023-03-28T08:15:39.246Z,97403.31
2023-03-28T08:18:13.676Z,97390.47
2023-03-28T08:20:49.541Z,97400.28
2023-03-28T08:23:23.064Z,97367.19
2023-03-28T08:25:54.012Z,97401.88
2023-03-28T08:28:24.904Z,97399.97
2023-03-28T08:30:57.431Z,97400.09
2023-03-28T08:33:33.400Z,97405.09
2023-03-28T08:36:07.653Z,97397.16
2023-03-28T08:38:38.093Z,97403.81
2023-03-28T08:41:16.956Z,97355.97
2023-03-28T08:43:57.175Z,97351.69
2023-03-28T08:46:27.575Z,97386.09
2023-03-28T08:49:02.978Z,97388.88
2023-03-28T08:51:36.390Z,97387.06
2023-03-28T08:54:15.747Z,97390.13
2023-03-28T08:56:48.230Z,97398.81
2023-03-28T08:59:19.778Z,97400.19
2023-03-28T09:01:49.976Z,97324.66
2023-03-28T09:04:28.042Z,97398.03
2023-03-28T09:07:02.683Z,97395.22
2023-03-28T09:09:40.312Z,97145.41
2023-03-28T09:12:23.648Z,97381.81
2023-03-28T09:15:43.843Z,97388.00
2023-03-28T09:18:40.909Z,97397.88
2023-03-28T09:21:26.972Z,97395.03
2023-03-28T09:24:20.175Z,97411.50
2023-03-28T09:26:59.214Z,97312.53
2023-03-28T09:29:36.642Z,97334.50
2023-03-28T09:32:18.321Z,97395.59
2023-03-28T09:34:53.725Z,97401.25
2023-03-28T09:37:33.829Z,97378.53
2023-03-28T09:40:08.680Z,97397.91
2023-03-28T09:42:46.366Z,97398.63
2023-03-28T09:45:31.467Z,97352.34
2023-03-28T09:48:04.594Z,97400.81
2023-03-28T09:50:34.586Z,97403.47
2023-03-28T09:53:09.001Z,97394.28
2023-03-28T09:55:42.867Z,97394.19
2023-03-28T09:58:19.370Z,97389.38
2023-03-28T10:00:50.775Z,97391.47
2023-03-28T10:03:30.361Z,97386.34
2023-03-28T10:05:59.810Z,97379.44
2023-03-28T10:08:36.488Z,97384.34
2023-03-28T10:11:11.884Z,97371.09
2023-03-28T10:13:44.237Z,97372.34
2023-03-28T10:16:14.206Z,97359.66
2023-03-28T10:18:44.120Z,97377.69
2023-03-28T10:21:17.650Z,97307.41
2023-03-28T10:24:00.708Z,97341.97
2023-03-28T10:26:30.847Z,97348.72
2023-03-28T10:29:04.462Z,97375.22
2023-03-28T10:31:36.839Z,97349.13
2023-03-28T10:34:09.266Z,97357.31
2023-03-28T10:36:46.694Z,97354.38
2023-03-28T10:39:36.453Z,97349.19
2023-03-28T10:42:05.778Z,97355.16
2023-03-28T10:44:36.823Z,97356.75
2023-03-28T10:47:10.810Z,97358.53
2023-03-28T10:49:47.555Z,97304.56
2023-03-28T10:52:32.186Z,97346.38
2023-03-28T10:55:18.152Z,97346.31
2023-03-28T10:57:56.399Z,97348.06
2023-03-28T11:00:38.193Z,97345.53
2023-03-28T11:03:27.550Z,97329.47
2023-03-28T11:06:10.720Z,97301.38
2023-03-28T11:08:48.943Z,97320.28
2023-03-28T11:11:38.139Z,97329.72
2023-03-28T11:14:21.722Z,97335.38
2023-03-28T11:16:57.721Z,97329.19
2023-03-28T11:19:43.534Z,97319.31
2023-03-28T11:22:18.319Z,97322.03
2023-03-28T11:24:54.968Z,97312.50
2023-03-28T11:27:32.022Z,97300.50
2023-03-28T11:30:06.326Z,97316.44
2023-03-28T11:32:56.925Z,97311.53
2023-03-28T11:35:29.036Z,97304.00
2023-03-28T11:38:03.282Z,97230.34
2023-03-28T11:40:41.858Z,97283.38
2023-03-28T11:43:26.399Z,97290.38
2023-03-28T11:46:01.850Z,97275.63
2023-03-28T11:48:33.529Z,97220.44
2023-03-28T11:51:08.256Z,97263.59
2023-03-28T11:53:41.105Z,97249.50
2023-03-28T11:56:21.912Z,97268.44
2023-03-28T11:58:56.363Z,97157.97
2023-03-28T12:01:28.936Z,97260.97
2023-03-28T12:04:06.800Z,97251.19
2023-03-28T12:06:48.985Z,97224.22
2023-03-28T12:09:40.049Z,97248.13
2023-03-28T12:12:14.979Z,97191.19
2023-03-28T12:14:51.836Z,97257.59
2023-03-28T12:17:24.426Z,97235.53
2023-03-28T12:19:57.958Z,97255.66
2023-03-28T12:22:36.537Z,97245.78
2023-03-28T12:25:11.110Z,97223.03
2023-03-28T12:27:49.650Z,97235.94
2023-03-28T12:30:24.230Z,97236.84
2023-03-28T12:33:03.041Z,97234.66
2023-03-28T12:35:35.995Z,97195.16
2023-03-28T12:38:14.621Z,97180.00
2023-03-28T12:40:57.965Z,97197.81
2023-03-28T12:43:37.623Z,97189.50
2023-03-28T12:46:11.140Z,97200.38
2023-03-28T12:48:44.745Z,97194.03
2023-03-28T12:51:26.558Z,97198.03
2023-03-28T12:54:27.445Z,97204.06
2023-03-28T12:57:07.347Z,97193.19
2023-03-28T13:00:12.419Z,97189.53
2023-03-28T13:02:46.749Z,97183.72
2023-03-28T13:05:26.114Z,97182.09
2023-03-28T13:08:02.290Z,97185.78
2023-03-28T13:10:40.582Z,97183.34
2023-03-28T13:13:21.971Z,97179.94
2023-03-28T13:16:04.790Z,97175.66
2023-03-28T13:18:40.200Z,97171.41
2023-03-28T13:21:08.998Z,97166.91
2023-03-28T13:23:50.125Z,97168.78
2023-03-28T13:26:27.575Z,97152.28
2023-03-28T13:29:04.469Z,97170.91
2023-03-28T13:31:34.121Z,97179.19
2023-03-28T13:34:04.922Z,97119.81
2023-03-28T13:36:45.474Z,97101.97
2023-03-28T13:39:27.630Z,97149.47
2023-03-28T13:42:00.287Z,97146.63
2023-03-28T13:44:36.211Z,97134.34
2023-03-28T13:47:05.771Z,97132.81
2023-03-28T13:49:43.382Z,97133.09
2023-03-28T13:52:16.020Z,97088.94
2023-03-28T13:54:54.553Z,97134.63
2023-03-28T13:57:27.250Z,97127.53
2023-03-28T14:00:01.578Z,97111.06
2023-03-28T14:02:38.315Z,97110.22
2023-03-28T14:05:23.306Z,97109.44
2023-03-28T14:07:52.575Z,97099.91
2023-03-28T14:10:44.638Z,97082.00
2023-03-28T14:13:18.209Z,97076.25
2023-03-28T14:16:00.516Z,97093.44
2023-03-28T14:18:38.413Z,97093.69
2023-03-28T14:21:12.498Z,97094.09
2023-03-28T14:23:41.991Z,97098.31
2023-03-28T14:26:19.961Z,97093.72
2023-03-28T14:28:55.237Z,97086.59
2023-03-28T14:31:40.427Z,97078.94
2023-03-28T14:34:25.937Z,96964.31
2023-03-28T14:37:22.121Z,96988.84
2023-03-28T14:39:52.054Z,97068.88
2023-03-28T14:42:22.680Z,97061.69
2023-03-28T14:44:55.192Z,97067.13
2023-03-28T14:47:28.906Z,97024.53
2023-03-28T14:49:57.606Z,97064.50
2023-03-28T14:52:38.033Z,97060.84
2023-03-28T14:55:12.706Z,97051.47
2023-03-28T14:57:43.505Z,97035.25
2023-03-28T15:00:22.342Z,97023.13
2023-03-28T15:02:53.953Z,97036.28
2023-03-28T15:05:23.901Z,97025.34
2023-03-28T15:08:00.814Z,97029.28
2023-03-28T15:10:39.148Z,97018.91
2023-03-28T15:13:10.534Z,97011.22
2023-03-28T15:15:45.068Z,96943.28
2023-03-28T15:18:18.010Z,96990.03
2023-03-28T15:21:04.715Z,96918.47
2023-03-28T15:23:39.981Z,96995.44
2023-03-28T15:26:11.823Z,96989.97
2023-03-28T15:28:41.762Z,96997.66
2023-03-28T15:31:27.258Z,96960.13
2023-03-28T15:33:59.152Z,96984.22
2023-03-28T15:36:35.065Z,96984.09
2023-03-28T15:39:26.846Z,96977.63
2023-03-28T15:42:03.057Z,96959.38
2023-03-28T15:44:35.722Z,96969.53
2023-03-28T15:47:12.346Z,96980.03
2023-03-28T15:49:45.158Z,96928.28
2023-03-28T15:52:23.677Z,96871.00
2023-03-28T15:54:57.612Z,96961.78
2023-03-28T15:57:32.611Z,96908.00
2023-03-28T16:00:03.826Z,96936.69
2023-03-28T16:02:43.372Z,96963.22
2023-03-28T16:05:32.058Z,96945.13
2023-03-28T16:08:03.522Z,96934.69
2023-03-28T16:10:33.133Z,96954.41
2023-03-28T16:13:01.668Z,96961.09
2023-03-28T16:15:36.101Z,96949.59
2023-03-28T16:18:05.931Z,96954.25
2023-03-28T16:20:41.767Z,96958.31
2023-03-28T16:23:11.227Z,96939.41
2023-03-28T16:25:41.681Z,96941.00
2023-03-28T16:28:15.997Z,96953.22
2023-03-28T16:30:48.681Z,96947.75
2023-03-28T16:33:21.664Z,96944.06
2023-03-28T16:35:53.810Z,96930.00
2023-03-28T16:38:25.360Z,96938.66
2023-03-28T16:40:55.916Z,96939.94
2023-03-28T16:43:31.172Z,96939.41
2023-03-28T16:46:03.550Z,96919.00
2023-03-28T16:48:38.466Z,96934.84
2023-03-28T16:51:10.143Z,96931.63
2023-03-28T16:53:39.967Z,96932.63
2023-03-28T16:56:17.969Z,96901.69
2023-03-28T16:58:46.325Z,96880.69
2023-03-28T17:01:20.302Z,96922.41
2023-03-28T17:03:58.194Z,96922.41
2023-03-28T17:06:27.686Z,96914.59
2023-03-28T17:08:56.609Z,96905.38
2023-03-28T17:11:30.619Z,96900.50
2023-03-28T17:13:59.301Z,96898.94
2023-03-28T17:16:28.731Z,96887.84
2023-03-28T17:18:58.734Z,96615.91
2023-03-28T17:21:27.404Z,96864.97
2023-03-28T17:24:01.497Z,96884.41
2023-03-28T17:26:34.334Z,96878.50
2023-03-28T17:29:07.622Z,96883.31
2023-03-28T17:31:36.725Z,96861.28
2023-03-28T17:36:59.585Z,96771.97
2023-03-28T17:39:32.497Z,96853.28
2023-03-28T17:42:04.524Z,96854.84
2023-03-28T17:44:38.678Z,96794.22
2023-03-28T17:47:10.278Z,96838.94
2023-03-28T17:49:48.390Z,96853.75
2023-03-28T17:52:19.662Z,96865.31
2023-03-28T17:54:51.536Z,96860.81
2023-03-28T17:57:34.270Z,96850.69
2023-03-28T18:00:03.727Z,96783.09
2023-03-28T18:02:34.677Z,96841.78
2023-03-28T18:05:04.777Z,96837.59
2023-03-28T18:07:35.880Z,96886.38
2023-03-28T18:10:06.441Z,96812.97
2023-03-28T18:12:36.713Z,96838.81
2023-03-28T18:15:08.464Z,96804.31
2023-03-28T18:17:40.140Z,96848.72
2023-03-28T18:20:13.097Z,96846.91
2023-03-28T18:22:50.627Z,96838.19
2023-03-28T18:25:23.437Z,96817.56
2023-03-28T18:28:09.323Z,96840.53
2023-03-28T18:30:39.626Z,96845.25
2023-03-28T18:33:12.049Z,96571.16
2023-03-28T18:35:41.405Z,96789.72
2023-03-28T18:38:12.344Z,96814.81
2023-03-28T18:40:51.802Z,96835.34
2023-03-28T18:43:34.338Z,96831.09
2023-03-28T18:46:08.145Z,96792.94
2023-03-28T18:48:36.857Z,96845.47
2023-03-28T18:51:13.376Z,96845.09
2023-03-28T18:53:48.896Z,96823.72
2023-03-28T18:56:18.502Z,96839.19
2023-03-28T18:58:54.174Z,96806.56
2023-03-28T19:01:36.301Z,96847.41
2023-03-28T19:04:05.170Z,96842.91
2023-03-28T19:06:47.772Z,96846.53
2023-03-28T19:09:30.411Z,96850.03
2023-03-28T19:12:01.444Z,96849.22
2023-03-28T19:14:40.459Z,96809.41
2023-03-28T19:17:14.767Z,96850.69
2023-03-28T19:19:43.799Z,96833.13
2023-03-28T19:22:13.391Z,96811.16
2023-03-28T19:24:42.847Z,96858.75
2023-03-28T19:27:21.231Z,96861.53
2023-03-28T19:30:06.065Z,96831.09
2023-03-28T19:32:39.377Z,96862.53
2023-03-28T19:35:10.939Z,96864.50
2023-03-28T19:37:41.940Z,96755.00
2023-03-28T19:40:16.636Z,96858.84
2023-03-28T19:42:47.426Z,96861.31
2023-03-28T19:45:18.349Z,96854.97
2023-03-28T19:47:49.475Z,96845.91
2023-03-28T19:50:20.838Z,96826.06
2023-03-28T19:52:54.078Z,96782.34
2023-03-28T19:55:25.934Z,96841.22
2023-03-28T19:57:58.535Z,96807.47
2023-03-28T20:00:40.115Z,96844.59
2023-03-28T20:03:08.685Z,96810.84
2023-03-28T20:05:44.498Z,96847.50
2023-03-28T20:08:14.145Z,96821.19
2023-03-28T20:10:46.623Z,96827.56
2023-03-28T20:13:17.558Z,96834.09
2023-03-28T20:15:52.020Z,96837.06
2023-03-28T20:18:21.375Z,96836.84
2023-03-28T20:20:53.826Z,96825.22
2023-03-28T20:23:25.587Z,96817.88
2023-03-28T20:25:57.481Z,96826.41
2023-03-28T20:28:32.986Z,96857.72
2023-03-28T20:31:07.930Z,96852.72
2023-03-28T20:33:43.553Z,96814.78
2023-03-28T20:36:13.274Z,96867.91
2023-03-28T20:38:47.420Z,96857.78
2023-03-28T20:41:20.694Z,96825.50
2023-03-28T20:43:52.638Z,96833.81
2023-03-28T20:46:26.702Z,96877.19
2023-03-28T20:48:57.688Z,96818.88
2023-03-28T20:51:29.847Z,96778.59
2023-03-28T20:54:03.792Z,96772.66
2023-03-28T20:56:36.549Z,96829.47
2023-03-28T20:59:09.432Z,96782.00
2023-03-28T21:01:41.843Z,96807.00
2023-03-28T21:04:16.285Z,96814.41
2023-03-28T21:06:48.480Z,96826.94
2023-03-28T21:09:19.017Z,96816.66
2023-03-28T21:11:54.154Z,96820.97
2023-03-28T21:14:23.260Z,96772.81
2023-03-28T21:16:58.460Z,96747.44
2023-03-28T21:19:30.122Z,96808.72
2023-03-28T21:22:04.079Z,96803.53
2023-03-28T21:24:35.796Z,96770.19
2023-03-28T21:27:05.939Z,96755.19
2023-03-28T21:29:35.951Z,96793.09
2023-03-28T21:32:10.188Z,96808.38
2023-03-28T21:34:39.530Z,96833.94
2023-03-28T21:37:07.630Z,96804.69
2023-03-28T21:39:38.851Z,96772.88
2023-03-28T21:42:07.737Z,96814.91
2023-03-28T21:44:42.388Z,96800.75
2023-03-28T21:47:12.748Z,96778.22
2023-03-28T21:49:54.280Z,96768.38
2023-03-28T21:52:24.885Z,96772.06
2023-03-28T21:54:53.268Z,96747.59
2023-03-28T21:57:22.505Z,96776.09
2023-03-28T21:59:59.637Z,96751.81
2023-03-28T22:02:34.994Z,96797.88
2023-03-28T22:05:26.539Z,96786.09
2023-03-28T22:07:58.395Z,96808.72
2023-03-28T22:10:30.362Z,96818.63
2023-03-28T22:12:59.817Z,96825.56
2023-03-28T22:15:29.870Z,96812.38
2023-03-28T22:18:06.753Z,96783.84
2023-03-28T22:20:37.515Z,96830.97
2023-03-28T22:23:07.879Z,96836.94
2023-03-28T22:25:40.705Z,96859.22
2023-03-28T22:28:12.582Z,96875.06
2023-03-28T22:30:44.323Z,96894.00
2023-03-28T22:33:19.433Z,96898.88
2023-03-28T22:35:55.599Z,96908.81
2023-03-28T22:38:27.847Z,96894.34
2023-03-28T22:41:13.133Z,96877.38
2023-03-28T22:46:20.296Z,96913.91
2023-03-28T22:48:54.781Z,96881.28
2023-03-28T22:51:28.436Z,96637.75
2023-03-28T22:54:04.262Z,96692.84
2023-03-28T22:56:37.879Z,96870.66
2023-03-28T22:59:07.715Z,96866.88
2023-03-28T23:01:39.068Z,96901.56
2023-03-28T23:04:11.235Z,96897.09
2023-03-28T23:06:42.900Z,96871.91
2023-03-28T23:09:12.242Z,96877.97
2023-03-28T23:11:40.997Z,96884.63
2023-03-28T23:14:11.408Z,96870.69
2023-03-28T23:16:40.116Z,96857.69
2023-03-28T23:19:15.708Z,96847.53
2023-03-28T23:21:44.549Z,96802.28
2023-03-28T23:24:25.577Z,96831.41
2023-03-28T23:26:54.325Z,96821.00
2023-03-28T23:29:25.398Z,96773.63
2023-03-28T23:31:58.877Z,96767.88
2023-03-28T23:34:33.976Z,96721.66
2023-03-28T23:37:03.458Z,96764.19
2023-03-28T23:39:39.703Z,96774.75
2023-03-28T23:42:12.838Z,96766.72
2023-03-28T23:44:44.460Z,96764.09
2023-03-28T23:47:14.370Z,96760.66
2023-03-28T23:49:45.801Z,96538.81
2023-03-28T23:52:16.390Z,96759.91
2023-03-28T23:54:51.287Z,96761.44
2023-03-28T23:57:19.715Z,96763.16
2023-03-28T23:59:48.814Z,96735.31
